Time;durP1;ratioP1;P1;durP2;ratioP2;P2;SDS_P1;SDS_P2;PMS_P1;PMS_P2;Temp;Humidity;BMP_temperature;BMP_pressure;BME280_temperature;BME280_humidity;BME280_pressure;Samples;Min_cycle;Max_cycle;Signal;HPM_P1;HPM_P2
2024/01/25 00:00:17;;;;;;;0.00;0.00;;;;;;;;;;1744436;28;20229;-60
2024/01/25 00:01:09;;;;;;;0.00;0.00;;;;;;;;;;1743811;28;20600;-59
2024/01/25 00:02:00;;;;;;;0.00;0.00;;;;;;;;;;1744824;28;20267;-59
2024/01/25 00:02:51;;;;;;;0.00;0.00;;;;;;;;;;1744884;28;20214;-59
2024/01/25 00:03:43;;;;;;;0.00;0.00;;;;;;;;;;1744684;28;20202;-59
2024/01/25 00:04:34;;;;;;;0.00;0.00;;;;;;;;;;1745066;28;20430;-59
2024/01/25 00:05:26;;;;;;;0.00;0.00;;;;;;;;;;1743962;28;20442;-59
2024/01/25 00:06:17;;;;;;;0.00;0.00;;;;;;;;;;1745285;28;20627;-59
2024/01/25 00:07:09;;;;;;;0.00;0.00;;;;;;;;;;1744559;28;20194;-59
2024/01/25 00:08:01;;;;;;;0.00;0.00;;;;;;;;;;1745246;28;20672;-59
2024/01/25 00:08:53;;;;;;;0.00;0.00;;;;;;;;;;1744428;28;20777;-58
2024/01/25 00:09:44;;;;;;;0.00;0.00;;;;;;;;;;1744990;28;20233;-59
2024/01/25 00:10:36;;;;;;;0.00;0.00;;;;;;;;;;1741637;28;20236;-58
2024/01/25 00:11:27;;;;;;;0.00;0.00;;;;;;;;;;1745048;28;20274;-58
2024/01/25 00:12:19;;;;;;;0.00;0.00;;;;;;;;;;1744366;28;20291;-59
2024/01/25 00:13:11;;;;;;;0.00;0.00;;;;;;;;;;1744747;28;20206;-59
2024/01/25 00:14:03;;;;;;;0.00;0.00;;;;;;;;;;1744593;28;20202;-58
2024/01/25 00:14:54;;;;;;;0.00;0.00;;;;;;;;;;1745000;28;20351;-59
2024/01/25 00:15:45;;;;;;;0.00;0.00;;;;;;;;;;1743605;28;20233;-59
2024/01/25 00:16:37;;;;;;;0.00;0.00;;;;;;;;;;1745035;28;20205;-59
2024/01/25 00:17:28;;;;;;;0.00;0.00;;;;;;;;;;1744563;28;20755;-59
2024/01/25 00:18:19;;;;;;;0.00;0.00;;;;;;;;;;1744596;28;20624;-59
2024/01/25 00:19:11;;;;;;;0.00;0.00;;;;;;;;;;1744274;28;20684;-59
2024/01/25 00:20:02;;;;;;;0.00;0.00;;;;;;;;;;1744437;28;20202;-59
2024/01/25 00:20:54;;;;;;;0.00;0.00;;;;;;;;;;1743335;28;20795;-59
2024/01/25 00:21:45;;;;;;;0.00;0.00;;;;;;;;;;1744154;28;20206;-58
2024/01/25 00:22:37;;;;;;;0.00;0.00;;;;;;;;;;1744575;28;20519;-59
2024/01/25 00:23:28;;;;;;;0.00;0.00;;;;;;;;;;1744271;28;20210;-58
2024/01/25 00:24:22;;;;;;;0.00;0.00;;;;;;;;;;1744649;28;20264;-59
2024/01/25 00:25:13;;;;;;;0.00;0.00;;;;;;;;;;1744044;28;20263;-59
2024/01/25 00:26:04;;;;;;;0.00;0.00;;;;;;;;;;1743293;28;20283;-59
2024/01/25 00:26:56;;;;;;;0.00;0.00;;;;;;;;;;1744126;28;20688;-58
2024/01/25 00:27:47;;;;;;;0.00;0.00;;;;;;;;;;1744318;28;20263;-59
2024/01/25 00:28:38;;;;;;;0.00;0.00;;;;;;;;;;1744155;28;20693;-58
2024/01/25 00:29:31;;;;;;;0.00;0.00;;;;;;;;;;1744819;28;20351;-60
2024/01/25 00:30:22;;;;;;;0.00;0.00;;;;;;;;;;1742973;28;20278;-59
2024/01/25 00:31:14;;;;;;;0.00;0.00;;;;;;;;;;1744743;28;20259;-59
2024/01/25 00:32:06;;;;;;;0.00;0.00;;;;;;;;;;1744163;28;20194;-59
2024/01/25 00:32:57;;;;;;;0.00;0.00;;;;;;;;;;1744517;28;20214;-57
2024/01/25 00:33:48;;;;;;;0.00;0.00;;;;;;;;;;1743988;28;20205;-59
2024/01/25 00:34:40;;;;;;;0.00;0.00;;;;;;;;;;1744769;28;20198;-59
2024/01/25 00:35:31;;;;;;;0.00;0.00;;;;;;;;;;1743413;28;20293;-59
2024/01/25 00:36:24;;;;;;;0.00;0.00;;;;;;;;;;1744774;28;20521;-58
2024/01/25 00:37:15;;;;;;;0.00;0.00;;;;;;;;;;1744248;28;20717;-59
2024/01/25 00:38:07;;;;;;;0.00;0.00;;;;;;;;;;1744551;28;20237;-59
2024/01/25 00:38:59;;;;;;;0.00;0.00;;;;;;;;;;1742978;28;20791;-59
2024/01/25 00:39:52;;;;;;;0.00;0.00;;;;;;;;;;1744500;28;20206;-59
2024/01/25 00:40:44;;;;;;;0.00;0.00;;;;;;;;;;1742750;28;20241;-58
2024/01/25 00:41:36;;;;;;;0.00;0.00;;;;;;;;;;1745181;28;20206;-59
2024/01/25 00:42:27;;;;;;;0.00;0.00;;;;;;;;;;1744041;28;20697;-59
2024/01/25 00:43:19;;;;;;;0.00;0.00;;;;;;;;;;1744519;28;20202;-60
2024/01/25 00:44:10;;;;;;;0.00;0.00;;;;;;;;;;1744040;28;20213;-59
2024/01/25 00:45:02;;;;;;;0.08;0.08;;;;;;;;;;1744605;28;20198;-59
2024/01/25 00:45:54;;;;;;;0.00;0.00;;;;;;;;;;1743249;28;20701;-59
2024/01/25 00:46:46;;;;;;;0.00;0.00;;;;;;;;;;1743973;28;20211;-59
2024/01/25 00:47:38;;;;;;;0.00;0.00;;;;;;;;;;1744569;28;20439;-58
2024/01/25 00:48:30;;;;;;;0.00;0.00;;;;;;;;;;1744466;28;20346;-59
2024/01/25 00:49:21;;;;;;;0.00;0.00;;;;;;;;;;1743886;28;20785;-59
2024/01/25 00:50:13;;;;;;;0.00;0.00;;;;;;;;;;1743809;28;20594;-59
2024/01/25 00:51:08;;;;;;;0.00;0.00;;;;;;;;;;1743334;28;20226;-59
2024/01/25 00:51:59;;;;;;;0.00;0.00;;;;;;;;;;1740367;28;20639;-59
2024/01/25 00:52:52;;;;;;;0.00;0.00;;;;;;;;;;1742714;28;20209;-59
2024/01/25 00:53:43;;;;;;;0.00;0.00;;;;;;;;;;1741815;28;20210;-59
2024/01/25 00:54:34;;;;;;;0.00;0.00;;;;;;;;;;1743955;28;20234;-59
2024/01/25 00:55:28;;;;;;;0.00;0.00;;;;;;;;;;1742777;28;20218;-59
2024/01/25 00:56:19;;;;;;;0.00;0.00;;;;;;;;;;1744490;28;20634;-59
2024/01/25 00:57:11;;;;;;;0.00;0.00;;;;;;;;;;1741250;28;20687;-57
2024/01/25 00:58:04;;;;;;;0.00;0.00;;;;;;;;;;1741216;28;20205;-59
2024/01/25 00:58:55;;;;;;;0.00;0.00;;;;;;;;;;1743395;28;20206;-59
2024/01/25 00:59:47;;;;;;;0.00;0.00;;;;;;;;;;1744632;28;20205;-59
2024/01/25 01:00:38;;;;;;;0.00;0.00;;;;;;;;;;1742444;28;20701;-57
2024/01/25 01:01:30;;;;;;;0.00;0.00;;;;;;;;;;1745074;28;20677;-59
2024/01/25 01:02:23;;;;;;;0.00;0.00;;;;;;;;;;1744005;28;20664;-59
2024/01/25 01:03:14;;;;;;;0.00;0.00;;;;;;;;;;1744074;28;20270;-59
2024/01/25 01:04:05;;;;;;;0.00;0.00;;;;;;;;;;1743954;28;20580;-59
2024/01/25 01:04:58;;;;;;;0.00;0.00;;;;;;;;;;1744453;28;20725;-58
2024/01/25 01:05:49;;;;;;;0.00;0.00;;;;;;;;;;1743284;28;20634;-59
2024/01/25 01:06:40;;;;;;;0.00;0.00;;;;;;;;;;1745900;28;20580;-58
2024/01/25 01:07:32;;;;;;;0.00;0.00;;;;;;;;;;1745639;28;20213;-59
2024/01/25 01:08:24;;;;;;;0.00;0.00;;;;;;;;;;1745561;28;20210;-58
2024/01/25 01:09:15;;;;;;;0.00;0.00;;;;;;;;;;1745498;28;20600;-59
2024/01/25 01:10:07;;;;;;;0.00;0.00;;;;;;;;;;1745481;28;20533;-58
2024/01/25 01:10:59;;;;;;;0.00;0.00;;;;;;;;;;1743894;28;20230;-59
2024/01/25 01:11:52;;;;;;;0.00;0.00;;;;;;;;;;1745439;28;20955;-59
2024/01/25 01:12:43;;;;;;;0.00;0.00;;;;;;;;;;1745520;28;20226;-58
2024/01/25 01:13:35;;;;;;;0.00;0.00;;;;;;;;;;1745329;28;20206;-58
2024/01/25 01:14:26;;;;;;;0.00;0.00;;;;;;;;;;1745859;28;20251;-59
2024/01/25 01:15:18;;;;;;;0.08;0.08;;;;;;;;;;1744330;28;20202;-59
2024/01/25 01:16:09;;;;;;;0.00;0.00;;;;;;;;;;1745206;28;20930;-59
2024/01/25 01:17:00;;;;;;;0.00;0.00;;;;;;;;;;1745164;28;20217;-59
2024/01/25 01:17:52;;;;;;;0.00;0.00;;;;;;;;;;1745372;28;20700;-59
2024/01/25 01:18:43;;;;;;;0.00;0.00;;;;;;;;;;1745346;28;20275;-58
2024/01/25 01:19:34;;;;;;;0.00;0.00;;;;;;;;;;1745794;28;20202;-59
2024/01/25 01:20:26;;;;;;;0.00;0.00;;;;;;;;;;1743946;28;20206;-59
2024/01/25 01:21:17;;;;;;;0.00;0.00;;;;;;;;;;1745871;28;20360;-59
2024/01/25 01:22:08;;;;;;;0.00;0.00;;;;;;;;;;1745071;28;20669;-58
2024/01/25 01:23:00;;;;;;;0.00;0.00;;;;;;;;;;1745880;28;20206;-59
2024/01/25 01:23:51;;;;;;;0.00;0.00;;;;;;;;;;1744882;28;20210;-58
2024/01/25 01:24:42;;;;;;;0.00;0.00;;;;;;;;;;1745784;28;20195;-58
2024/01/25 01:25:34;;;;;;;0.00;0.00;;;;;;;;;;1744323;28;20624;-59
2024/01/25 01:26:26;;;;;;;0.00;0.00;;;;;;;;;;1745528;28;20278;-59
2024/01/25 01:27:17;;;;;;;0.00;0.00;;;;;;;;;;1745017;28;20202;-58
2024/01/25 01:28:09;;;;;;;0.00;0.00;;;;;;;;;;1745593;28;20689;-58
2024/01/25 01:29:00;;;;;;;0.00;0.00;;;;;;;;;;1745190;28;20236;-59
2024/01/25 01:29:51;;;;;;;0.00;0.00;;;;;;;;;;1745416;28;20230;-59
2024/01/25 01:30:45;;;;;;;0.00;0.00;;;;;;;;;;1743874;28;20263;-58
2024/01/25 01:31:36;;;;;;;0.00;0.00;;;;;;;;;;1746169;28;20210;-59
2024/01/25 01:32:27;;;;;;;0.00;0.00;;;;;;;;;;1744891;28;20764;-59
2024/01/25 01:33:19;;;;;;;0.00;0.00;;;;;;;;;;1745504;28;20202;-59
2024/01/25 01:34:12;;;;;;;0.00;0.00;;;;;;;;;;1745284;28;20696;-58
2024/01/25 01:35:03;;;;;;;0.00;0.00;;;;;;;;;;1745453;28;20202;-59
2024/01/25 01:35:55;;;;;;;0.00;0.00;;;;;;;;;;1744297;28;20226;-59
2024/01/25 01:36:46;;;;;;;0.00;0.00;;;;;;;;;;1745142;28;20221;-58
2024/01/25 01:37:37;;;;;;;0.00;0.00;;;;;;;;;;1746123;28;20712;-60
2024/01/25 01:38:29;;;;;;;0.00;0.00;;;;;;;;;;1745162;28;20259;-59
2024/01/25 01:39:20;;;;;;;0.00;0.00;;;;;;;;;;1745619;28;20239;-59
2024/01/25 01:40:11;;;;;;;0.00;0.00;;;;;;;;;;1745235;28;20800;-59
2024/01/25 01:41:04;;;;;;;0.00;0.00;;;;;;;;;;1744566;28;20327;-59
2024/01/25 01:41:57;;;;;;;0.00;0.00;;;;;;;;;;1745210;28;20209;-59
2024/01/25 01:42:48;;;;;;;0.10;0.10;;;;;;;;;;1743859;28;20226;-59
2024/01/25 01:43:40;;;;;;;0.00;0.00;;;;;;;;;;1745290;28;20217;-59
2024/01/25 01:44:31;;;;;;;0.00;0.00;;;;;;;;;;1745779;28;20506;-59
2024/01/25 01:45:22;;;;;;;0.00;0.00;;;;;;;;;;1743761;28;20214;-59
2024/01/25 01:46:21;;;;;;;0.00;0.00;;;;;;;;;;1745773;28;20210;-59
2024/01/25 01:47:12;;;;;;;0.00;0.00;;;;;;;;;;1744671;28;20329;-59
2024/01/25 01:48:03;;;;;;;0.00;0.00;;;;;;;;;;1745463;28;20198;-59
2024/01/25 01:48:55;;;;;;;0.00;0.00;;;;;;;;;;1744924;28;20238;-59
2024/01/25 01:49:46;;;;;;;0.00;0.00;;;;;;;;;;1745395;28;20255;-59
2024/01/25 01:50:38;;;;;;;0.00;0.00;;;;;;;;;;1743991;28;20671;-59
2024/01/25 01:51:30;;;;;;;0.00;0.00;;;;;;;;;;1745398;28;20213;-59
2024/01/25 01:52:21;;;;;;;0.00;0.00;;;;;;;;;;1745010;28;20277;-59
2024/01/25 01:53:12;;;;;;;0.00;0.00;;;;;;;;;;1744856;28;20198;-59
2024/01/25 01:54:07;;;;;;;0.00;0.00;;;;;;;;;;1745090;28;20209;-59
2024/01/25 01:54:58;;;;;;;0.00;0.00;;;;;;;;;;1727306;28;20555;-60
2024/01/25 01:55:49;;;;;;;0.00;0.00;;;;;;;;;;1730121;28;20233;-59
2024/01/25 01:56:41;;;;;;;0.00;0.00;;;;;;;;;;1732135;28;20200;-59
2024/01/25 01:57:33;;;;;;;0.00;0.00;;;;;;;;;;1731523;28;20211;-59
2024/01/25 01:58:25;;;;;;;0.00;0.00;;;;;;;;;;1731716;28;20720;-58
2024/01/25 01:59:17;;;;;;;0.00;0.00;;;;;;;;;;1731691;28;20212;-59
2024/01/25 02:00:09;;;;;;;0.00;0.00;;;;;;;;;;1731509;28;20199;-58
2024/01/25 02:01:05;;;;;;;0.03;0.03;;;;;;;;;;1730441;28;20736;-59
2024/01/25 02:01:56;;;;;;;0.00;0.00;;;;;;;;;;1731374;28;20215;-59
2024/01/25 02:02:47;;;;;;;0.00;0.00;;;;;;;;;;1731516;28;20766;-59
2024/01/25 02:03:39;;;;;;;0.00;0.00;;;;;;;;;;1731330;28;20200;-59
2024/01/25 02:04:30;;;;;;;0.00;0.00;;;;;;;;;;1731906;28;20562;-59
2024/01/25 02:05:22;;;;;;;0.00;0.00;;;;;;;;;;1730134;28;20283;-67
2024/01/25 02:06:13;;;;;;;0.00;0.00;;;;;;;;;;1731748;28;20291;-58
2024/01/25 02:07:05;;;;;;;0.00;0.00;;;;;;;;;;1731482;28;20208;-59
2024/01/25 02:07:57;;;;;;;0.00;0.00;;;;;;;;;;1731505;28;20207;-59
2024/01/25 02:08:48;;;;;;;0.00;0.00;;;;;;;;;;1731294;28;20544;-59
2024/01/25 02:09:40;;;;;;;0.00;0.00;;;;;;;;;;1731879;28;20553;-59
2024/01/25 02:10:31;;;;;;;0.00;0.00;;;;;;;;;;1730077;28;20212;-59
2024/01/25 02:11:22;;;;;;;0.00;0.00;;;;;;;;;;1731746;28;20262;-59
2024/01/25 02:12:17;;;;;;;0.00;0.00;;;;;;;;;;1730858;28;20306;-59
2024/01/25 02:13:10;;;;;;;0.00;0.00;;;;;;;;;;1731625;28;20583;-58
2024/01/25 02:14:01;;;;;;;0.00;0.00;;;;;;;;;;1731215;28;20741;-59
2024/01/25 02:14:53;;;;;;;0.00;0.00;;;;;;;;;;1731597;28;20257;-58
2024/01/25 02:15:44;;;;;;;0.00;0.00;;;;;;;;;;1729995;28;20251;-57
2024/01/25 02:16:35;;;;;;;0.00;0.00;;;;;;;;;;1732046;28;20204;-59
2024/01/25 02:17:27;;;;;;;0.00;0.00;;;;;;;;;;1730473;28;20282;-59
2024/01/25 02:18:18;;;;;;;0.00;0.00;;;;;;;;;;1731193;28;20257;-59
2024/01/25 02:19:10;;;;;;;0.00;0.00;;;;;;;;;;1731251;28;20303;-59
2024/01/25 02:20:03;;;;;;;0.00;0.00;;;;;;;;;;1731484;28;20257;-59
2024/01/25 02:20:54;;;;;;;0.00;0.00;;;;;;;;;;1730074;28;20614;-59
2024/01/25 02:21:46;;;;;;;0.00;0.00;;;;;;;;;;1731534;28;20574;-59
2024/01/25 02:22:38;;;;;;;0.00;0.00;;;;;;;;;;1731573;28;20281;-59
2024/01/25 02:23:29;;;;;;;0.00;0.00;;;;;;;;;;1731042;28;20207;-59
2024/01/25 02:24:21;;;;;;;0.00;0.00;;;;;;;;;;1731380;28;20223;-59
2024/01/25 02:25:12;;;;;;;0.00;0.00;;;;;;;;;;1731225;28;20257;-59
2024/01/25 02:26:03;;;;;;;0.00;0.00;;;;;;;;;;1726770;28;20238;-59
2024/01/25 02:26:55;;;;;;;0.00;0.00;;;;;;;;;;1731245;28;20214;-59
2024/01/25 02:27:46;;;;;;;0.00;0.00;;;;;;;;;;1731682;28;20208;-59
2024/01/25 02:28:37;;;;;;;0.00;0.00;;;;;;;;;;1731384;28;20269;-59
2024/01/25 02:29:29;;;;;;;0.00;0.00;;;;;;;;;;1731594;28;20210;-59
2024/01/25 02:30:20;;;;;;;0.00;0.00;;;;;;;;;;1730925;28;21044;-59
2024/01/25 02:31:11;;;;;;;0.00;0.00;;;;;;;;;;1730442;28;20238;-58
2024/01/25 02:32:03;;;;;;;0.00;0.00;;;;;;;;;;1731074;28;20215;-59
2024/01/25 02:32:54;;;;;;;0.03;0.03;;;;;;;;;;1731161;28;20289;-59
2024/01/25 02:33:45;;;;;;;0.00;0.00;;;;;;;;;;1731021;28;20211;-57
2024/01/25 02:34:37;;;;;;;0.00;0.00;;;;;;;;;;1731886;28;20608;-59
2024/01/25 02:35:28;;;;;;;0.00;0.00;;;;;;;;;;1729988;28;20208;-59
2024/01/25 02:36:23;;;;;;;0.00;0.00;;;;;;;;;;1731588;28;20466;-59
2024/01/25 02:37:14;;;;;;;0.00;0.00;;;;;;;;;;1731102;28;20207;-59
2024/01/25 02:38:06;;;;;;;0.00;0.00;;;;;;;;;;1731654;28;20208;-59
2024/01/25 02:38:58;;;;;;;0.00;0.00;;;;;;;;;;1730949;28;20207;-59
2024/01/25 02:39:50;;;;;;;0.00;0.00;;;;;;;;;;1731457;28;20257;-59
2024/01/25 02:40:41;;;;;;;0.00;0.00;;;;;;;;;;1729926;28;20232;-59
2024/01/25 02:41:33;;;;;;;0.00;0.00;;;;;;;;;;1731671;28;20244;-59
2024/01/25 02:42:24;;;;;;;0.00;0.00;;;;;;;;;;1730940;28;20448;-59
2024/01/25 02:43:16;;;;;;;0.00;0.00;;;;;;;;;;1731304;28;20204;-59
2024/01/25 02:44:08;;;;;;;0.00;0.00;;;;;;;;;;1731207;28;20204;-59
2024/01/25 02:44:59;;;;;;;0.00;0.00;;;;;;;;;;1726589;28;20630;-59
2024/01/25 02:45:50;;;;;;;0.00;0.00;;;;;;;;;;1730091;28;20584;-59
2024/01/25 02:46:44;;;;;;;0.10;0.10;;;;;;;;;;1731975;28;20678;-59
2024/01/25 02:47:35;;;;;;;0.00;0.00;;;;;;;;;;1731302;28;20214;-59
2024/01/25 02:48:26;;;;;;;0.00;0.00;;;;;;;;;;1729751;28;20238;-59
2024/01/25 02:49:18;;;;;;;0.00;0.00;;;;;;;;;;1731475;28;20273;-59
2024/01/25 02:50:10;;;;;;;0.00;0.00;;;;;;;;;;1731302;28;20237;-59
2024/01/25 02:51:01;;;;;;;0.00;0.00;;;;;;;;;;1730645;28;20243;-59
2024/01/25 02:51:52;;;;;;;0.00;0.00;;;;;;;;;;1731636;28;20216;-59
2024/01/25 02:52:43;;;;;;;0.00;0.00;;;;;;;;;;1729269;28;20223;-59
2024/01/25 02:53:37;;;;;;;0.00;0.00;;;;;;;;;;1731014;28;20207;-59
2024/01/25 02:54:28;;;;;;;0.00;0.00;;;;;;;;;;1736499;28;20878;-59
2024/01/25 02:55:19;;;;;;;0.00;0.00;;;;;;;;;;1744493;28;20628;-59
2024/01/25 02:56:11;;;;;;;0.00;0.00;;;;;;;;;;1745122;28;20229;-58
2024/01/25 02:57:02;;;;;;;0.00;0.00;;;;;;;;;;1745279;28;20697;-59
2024/01/25 02:57:53;;;;;;;0.00;0.00;;;;;;;;;;1745314;28;20637;-59
2024/01/25 02:58:45;;;;;;;0.00;0.00;;;;;;;;;;1745538;28;20675;-59
2024/01/25 02:59:36;;;;;;;0.00;0.00;;;;;;;;;;1745222;28;20206;-59
2024/01/25 03:00:27;;;;;;;0.00;0.00;;;;;;;;;;1743749;28;20206;-59
2024/01/25 03:01:19;;;;;;;0.00;0.00;;;;;;;;;;1745384;28;20202;-59
2024/01/25 03:02:10;;;;;;;0.00;0.00;;;;;;;;;;1744710;28;20751;-59
2024/01/25 03:03:01;;;;;;;0.00;0.00;;;;;;;;;;1745271;28;20206;-59
2024/01/25 03:03:53;;;;;;;0.00;0.00;;;;;;;;;;1744650;28;20202;-59
2024/01/25 03:04:44;;;;;;;0.00;0.00;;;;;;;;;;1745798;28;20614;-59
2024/01/25 03:05:35;;;;;;;0.00;0.00;;;;;;;;;;1743606;28;20210;-59
2024/01/25 03:06:27;;;;;;;0.00;0.00;;;;;;;;;;1745390;28;20709;-59
2024/01/25 03:07:18;;;;;;;0.00;0.00;;;;;;;;;;1744998;28;20210;-59
2024/01/25 03:08:10;;;;;;;0.00;0.00;;;;;;;;;;1745124;28;20231;-58
2024/01/25 03:09:04;;;;;;;0.00;0.00;;;;;;;;;;1744960;28;20202;-59
2024/01/25 03:09:55;;;;;;;0.00;0.00;;;;;;;;;;1745132;28;20229;-59
2024/01/25 03:10:49;;;;;;;0.00;0.00;;;;;;;;;;1743893;28;20443;-59
2024/01/25 03:11:40;;;;;;;0.00;0.00;;;;;;;;;;1745744;28;20548;-59
2024/01/25 03:12:31;;;;;;;0.00;0.00;;;;;;;;;;1744549;28;20218;-59
2024/01/25 03:13:23;;;;;;;0.00;0.00;;;;;;;;;;1745172;28;20198;-59
2024/01/25 03:14:14;;;;;;;0.00;0.00;;;;;;;;;;1744921;28;20270;-59
2024/01/25 03:15:06;;;;;;;0.00;0.00;;;;;;;;;;1744922;28;20707;-58
2024/01/25 03:15:58;;;;;;;0.00;0.00;;;;;;;;;;1743917;28;20238;-59
2024/01/25 03:16:49;;;;;;;0.00;0.00;;;;;;;;;;1744478;28;20210;-58
2024/01/25 03:17:41;;;;;;;0.00;0.00;;;;;;;;;;1745322;28;20198;-59
2024/01/25 03:18:32;;;;;;;0.00;0.00;;;;;;;;;;1744583;28;20627;-59
2024/01/25 03:19:25;;;;;;;0.00;0.00;;;;;;;;;;1745002;28;20206;-60
2024/01/25 03:20:17;;;;;;;0.00;0.00;;;;;;;;;;1744172;28;20202;-58
2024/01/25 03:21:08;;;;;;;0.00;0.00;;;;;;;;;;1743882;28;20286;-58
2024/01/25 03:22:01;;;;;;;0.00;0.00;;;;;;;;;;1744635;28;20240;-59
2024/01/25 03:22:54;;;;;;;0.00;0.00;;;;;;;;;;1744802;28;20198;-59
2024/01/25 03:23:45;;;;;;;0.00;0.00;;;;;;;;;;1744813;28;20640;-59
2024/01/25 03:24:39;;;;;;;0.00;0.00;;;;;;;;;;1744951;28;20503;-59
2024/01/25 03:25:31;;;;;;;0.00;0.00;;;;;;;;;;1743158;28;20210;-59
2024/01/25 03:26:22;;;;;;;0.00;0.00;;;;;;;;;;1744909;28;20348;-57
2024/01/25 03:27:14;;;;;;;0.00;0.00;;;;;;;;;;1744362;28;20297;-59
2024/01/25 03:28:06;;;;;;;0.00;0.00;;;;;;;;;;1745062;28;20229;-59
2024/01/25 03:28:57;;;;;;;0.00;0.00;;;;;;;;;;1744058;28;20248;-59
2024/01/25 03:29:48;;;;;;;0.00;0.00;;;;;;;;;;1744639;28;20202;-59
2024/01/25 03:30:40;;;;;;;0.00;0.00;;;;;;;;;;1743508;28;20237;-59
2024/01/25 03:31:31;;;;;;;0.00;0.00;;;;;;;;;;1745030;28;20209;-59
2024/01/25 03:32:24;;;;;;;0.00;0.00;;;;;;;;;;1744360;28;20225;-59
2024/01/25 03:33:15;;;;;;;0.00;0.00;;;;;;;;;;1744311;28;20234;-59
2024/01/25 03:34:06;;;;;;;0.00;0.00;;;;;;;;;;1744520;28;20204;-59
2024/01/25 03:34:58;;;;;;;0.00;0.00;;;;;;;;;;1744850;28;20217;-59
2024/01/25 03:35:49;;;;;;;0.00;0.00;;;;;;;;;;1743728;28;20857;-59
2024/01/25 03:36:40;;;;;;;0.00;0.00;;;;;;;;;;1745343;28;20198;-59
2024/01/25 03:37:32;;;;;;;0.00;0.00;;;;;;;;;;1744428;28;20205;-59
2024/01/25 03:38:23;;;;;;;0.10;0.10;;;;;;;;;;1744737;28;20575;-58
2024/01/25 03:39:14;;;;;;;0.00;0.00;;;;;;;;;;1744634;28;21204;-58
2024/01/25 03:40:08;;;;;;;0.00;0.00;;;;;;;;;;1744691;28;20452;-59
2024/01/25 03:40:59;;;;;;;0.00;0.00;;;;;;;;;;1742867;28;20238;-58
2024/01/25 03:41:51;;;;;;;0.00;0.00;;;;;;;;;;1744313;28;20210;-57
2024/01/25 03:42:42;;;;;;;0.00;0.00;;;;;;;;;;1744906;28;20234;-59
2024/01/25 03:43:35;;;;;;;0.00;0.00;;;;;;;;;;1744174;28;20329;-59
2024/01/25 03:44:26;;;;;;;0.00;0.00;;;;;;;;;;1744644;28;20348;-59
2024/01/25 03:45:18;;;;;;;0.00;0.00;;;;;;;;;;1743531;28;20549;-58
2024/01/25 03:46:09;;;;;;;0.00;0.00;;;;;;;;;;1744366;28;20230;-58
2024/01/25 03:47:01;;;;;;;0.00;0.00;;;;;;;;;;1744345;28;20279;-59
2024/01/25 03:47:52;;;;;;;0.00;0.00;;;;;;;;;;1744445;28;20210;-58
2024/01/25 03:48:43;;;;;;;0.00;0.00;;;;;;;;;;1744913;28;20198;-59
2024/01/25 03:49:35;;;;;;;0.00;0.00;;;;;;;;;;1744596;28;20743;-59
2024/01/25 03:50:26;;;;;;;0.00;0.00;;;;;;;;;;1742988;28;20263;-59
2024/01/25 03:51:17;;;;;;;0.00;0.00;;;;;;;;;;1744883;28;20217;-59
2024/01/25 03:52:09;;;;;;;0.00;0.00;;;;;;;;;;1744228;28;20287;-58
2024/01/25 03:53:00;;;;;;;0.00;0.00;;;;;;;;;;1743235;28;20292;-59
2024/01/25 03:53:52;;;;;;;0.00;0.00;;;;;;;;;;1744196;28;20297;-58
2024/01/25 03:54:44;;;;;;;0.00;0.00;;;;;;;;;;1743955;28;20250;-59
2024/01/25 03:55:37;;;;;;;0.00;0.00;;;;;;;;;;1743114;28;20326;-59
2024/01/25 03:56:28;;;;;;;0.00;0.00;;;;;;;;;;1744665;28;20213;-59
2024/01/25 03:57:19;;;;;;;0.00;0.00;;;;;;;;;;1744567;28;20259;-59
2024/01/25 03:58:10;;;;;;;0.00;0.00;;;;;;;;;;1744520;28;20694;-59
2024/01/25 03:59:02;;;;;;;0.00;0.00;;;;;;;;;;1744513;28;20282;-59
2024/01/25 03:59:55;;;;;;;0.00;0.00;;;;;;;;;;1744586;28;20294;-59
2024/01/25 04:00:46;;;;;;;0.00;0.00;;;;;;;;;;1742427;28;20602;-59
2024/01/25 04:01:41;;;;;;;0.00;0.00;;;;;;;;;;1744890;28;20673;-59
2024/01/25 04:02:33;;;;;;;0.00;0.00;;;;;;;;;;1744046;28;20226;-59
2024/01/25 04:03:24;;;;;;;0.00;0.00;;;;;;;;;;1744382;28;20210;-59
2024/01/25 04:04:15;;;;;;;0.00;0.00;;;;;;;;;;1744421;28;20198;-58
2024/01/25 04:05:08;;;;;;;0.00;0.00;;;;;;;;;;1744672;28;20577;-59
2024/01/25 04:05:59;;;;;;;0.00;0.00;;;;;;;;;;1742480;28;20259;-59
2024/01/25 04:06:50;;;;;;;0.00;0.00;;;;;;;;;;1744702;28;20268;-59
2024/01/25 04:07:41;;;;;;;0.00;0.00;;;;;;;;;;1744709;28;20312;-59
2024/01/25 04:08:32;;;;;;;0.00;0.00;;;;;;;;;;1744276;28;20644;-59
2024/01/25 04:09:24;;;;;;;0.00;0.00;;;;;;;;;;1744705;28;20206;-59
2024/01/25 04:10:16;;;;;;;0.00;0.00;;;;;;;;;;1744285;28;20425;-59
2024/01/25 04:11:09;;;;;;;0.00;0.00;;;;;;;;;;1743957;28;20238;-59
2024/01/25 04:12:01;;;;;;;0.05;0.05;;;;;;;;;;1744319;28;20254;-59
2024/01/25 04:12:52;;;;;;;0.00;0.00;;;;;;;;;;1744696;28;20267;-58
2024/01/25 04:13:43;;;;;;;0.10;0.10;;;;;;;;;;1744715;28;20210;-59
2024/01/25 04:14:35;;;;;;;0.00;0.00;;;;;;;;;;1744534;28;20701;-59
2024/01/25 04:15:26;;;;;;;0.00;0.00;;;;;;;;;;1743006;28;20263;-60
2024/01/25 04:16:18;;;;;;;0.00;0.00;;;;;;;;;;1744776;28;20259;-59
2024/01/25 04:17:09;;;;;;;0.10;0.10;;;;;;;;;;1743919;28;20202;-59
2024/01/25 04:18:01;;;;;;;0.00;0.00;;;;;;;;;;1744625;28;20699;-59
2024/01/25 04:18:52;;;;;;;0.00;0.00;;;;;;;;;;1744651;28;20628;-59
2024/01/25 04:19:43;;;;;;;0.00;0.00;;;;;;;;;;1745055;28;20206;-59
2024/01/25 04:20:35;;;;;;;0.00;0.00;;;;;;;;;;1742922;28;20318;-59
2024/01/25 04:21:26;;;;;;;0.00;0.00;;;;;;;;;;1744663;28;20302;-59
2024/01/25 04:22:18;;;;;;;0.10;0.10;;;;;;;;;;1744297;28;20255;-59
2024/01/25 04:23:09;;;;;;;0.00;0.00;;;;;;;;;;1744368;28;20483;-58
2024/01/25 04:24:00;;;;;;;0.00;0.00;;;;;;;;;;1744432;28;20206;-59
2024/01/25 04:24:52;;;;;;;0.00;0.00;;;;;;;;;;1744903;28;20260;-59
2024/01/25 04:25:44;;;;;;;0.05;0.05;;;;;;;;;;1741895;28;21078;-59
2024/01/25 04:26:36;;;;;;;0.03;0.03;;;;;;;;;;1744784;28;20198;-59
2024/01/25 04:27:28;;;;;;;0.00;0.00;;;;;;;;;;1743857;28;20202;-59
2024/01/25 04:28:19;;;;;;;0.00;0.00;;;;;;;;;;1744690;28;20271;-59
2024/01/25 04:29:11;;;;;;;0.00;0.00;;;;;;;;;;1744023;28;20733;-59
2024/01/25 04:30:03;;;;;;;0.00;0.00;;;;;;;;;;1744905;28;20594;-59
2024/01/25 04:30:54;;;;;;;0.08;0.08;;;;;;;;;;1743058;28;20242;-58
2024/01/25 04:31:48;;;;;;;0.00;0.00;;;;;;;;;;1744636;28;20285;-59
2024/01/25 04:32:40;;;;;;;0.00;0.00;;;;;;;;;;1744323;28;20226;-58
2024/01/25 04:33:31;;;;;;;0.10;0.10;;;;;;;;;;1744092;28;20199;-59
2024/01/25 04:34:23;;;;;;;0.00;0.00;;;;;;;;;;1744645;28;20198;-59
2024/01/25 04:35:14;;;;;;;0.00;0.00;;;;;;;;;;1744376;28;20644;-59
2024/01/25 04:36:05;;;;;;;0.00;0.00;;;;;;;;;;1743516;28;20299;-59
2024/01/25 04:36:57;;;;;;;0.00;0.00;;;;;;;;;;1744289;28;20306;-59
2024/01/25 04:37:48;;;;;;;0.20;0.20;;;;;;;;;;1745009;28;20344;-59
2024/01/25 04:38:39;;;;;;;0.00;0.00;;;;;;;;;;1742109;28;20272;-59
2024/01/25 04:39:31;;;;;;;0.00;0.00;;;;;;;;;;1744463;28;20194;-59
2024/01/25 04:40:22;;;;;;;0.00;0.00;;;;;;;;;;1742607;28;20694;-59
2024/01/25 04:41:13;;;;;;;0.10;0.10;;;;;;;;;;1744483;28;20191;-59
2024/01/25 04:42:06;;;;;;;0.10;0.10;;;;;;;;;;1745307;28;20206;-59
2024/01/25 04:42:58;;;;;;;0.00;0.00;;;;;;;;;;1745931;28;20262;-59
2024/01/25 04:43:49;;;;;;;0.00;0.00;;;;;;;;;;1745601;28;20216;-59
2024/01/25 04:44:41;;;;;;;0.00;0.00;;;;;;;;;;1745983;28;20206;-59
2024/01/25 04:45:32;;;;;;;0.00;0.00;;;;;;;;;;1744471;28;20206;-59
2024/01/25 04:46:24;;;;;;;0.00;0.00;;;;;;;;;;1745852;28;20202;-59
2024/01/25 04:47:15;;;;;;;0.00;0.00;;;;;;;;;;1745361;28;20214;-59
2024/01/25 04:48:07;;;;;;;0.00;0.00;;;;;;;;;;1745607;28;20952;-59
2024/01/25 04:48:59;;;;;;;0.00;0.00;;;;;;;;;;1745740;28;20577;-58
2024/01/25 04:49:50;;;;;;;0.00;0.00;;;;;;;;;;1745867;28;20267;-58
2024/01/25 04:50:41;;;;;;;0.00;0.00;;;;;;;;;;1744130;28;20226;-59
2024/01/25 04:51:33;;;;;;;0.00;0.00;;;;;;;;;;1745889;28;20689;-58
2024/01/25 04:52:24;;;;;;;0.00;0.00;;;;;;;;;;1745076;28;20251;-58
2024/01/25 04:53:15;;;;;;;0.10;0.10;;;;;;;;;;1743430;28;20232;-59
2024/01/25 04:54:08;;;;;;;0.00;0.00;;;;;;;;;;1745268;28;20603;-58
2024/01/25 04:54:59;;;;;;;0.00;0.00;;;;;;;;;;1738944;28;20329;-58
2024/01/25 04:55:50;;;;;;;0.00;0.00;;;;;;;;;;1744590;28;20230;-59
2024/01/25 04:56:42;;;;;;;0.10;0.10;;;;;;;;;;1745752;28;20597;-58
2024/01/25 04:57:35;;;;;;;0.00;0.00;;;;;;;;;;1745276;28;20222;-59
2024/01/25 04:58:26;;;;;;;0.10;0.10;;;;;;;;;;1745423;28;20218;-58
2024/01/25 04:59:17;;;;;;;0.00;0.00;;;;;;;;;;1745735;28;20267;-59
2024/01/25 05:00:10;;;;;;;0.00;0.00;;;;;;;;;;1745543;28;20255;-59
2024/01/25 05:01:02;;;;;;;0.00;0.00;;;;;;;;;;1744484;28;20222;-59
2024/01/25 05:01:55;;;;;;;0.00;0.00;;;;;;;;;;1746031;28;20239;-58
2024/01/25 05:02:46;;;;;;;0.00;0.00;;;;;;;;;;1745652;28;20233;-59
2024/01/25 05:03:38;;;;;;;0.00;0.00;;;;;;;;;;1745385;28;20310;-58
2024/01/25 05:04:31;;;;;;;0.00;0.00;;;;;;;;;;1745717;28;20283;-58
2024/01/25 05:05:22;;;;;;;0.00;0.00;;;;;;;;;;1744253;28;20209;-59
2024/01/25 05:06:14;;;;;;;0.00;0.00;;;;;;;;;;1745992;28;20190;-58
2024/01/25 05:07:05;;;;;;;0.00;0.00;;;;;;;;;;1745224;28;20210;-58
2024/01/25 05:07:56;;;;;;;0.10;0.10;;;;;;;;;;1746095;28;20214;-58
2024/01/25 05:08:48;;;;;;;0.10;0.10;;;;;;;;;;1745545;28;20295;-59
2024/01/25 05:09:39;;;;;;;0.00;0.00;;;;;;;;;;1745962;28;20554;-58